sensor_id;sensor_type;location;lat;lon;timestamp;P1;durP1;ratioP1;P2;durP2;ratioP2
45893;SDS011;31603;51.148;16.932;2023-03-08T00:02:04;20.65;;;10.20;;
45893;SDS011;31603;51.148;16.932;2023-03-08T00:04:31;21.92;;;10.73;;
45893;SDS011;31603;51.148;16.932;2023-03-08T00:06:58;21.15;;;10.35;;
45893;SDS011;31603;51.148;16.932;2023-03-08T00:09:24;20.73;;;9.80;;
45893;SDS011;31603;51.148;16.932;2023-03-08T00:11:51;23.88;;;11.48;;
45893;SDS011;31603;51.148;16.932;2023-03-08T00:14:17;19.52;;;9.60;;
45893;SDS011;31603;51.148;16.932;2023-03-08T00:16:46;20.75;;;9.75;;
45893;SDS011;31603;51.148;16.932;2023-03-08T00:19:13;20.35;;;9.40;;
45893;SDS011;31603;51.148;16.932;2023-03-08T00:21:39;18.90;;;9.27;;
45893;SDS011;31603;51.148;16.932;2023-03-08T00:24:05;18.83;;;9.82;;
45893;SDS011;31603;51.148;16.932;2023-03-08T00:26:32;18.98;;;9.35;;
45893;SDS011;31603;51.148;16.932;2023-03-08T00:28:59;21.65;;;10.52;;
45893;SDS011;31603;51.148;16.932;2023-03-08T00:31:25;26.83;;;11.68;;
45893;SDS011;31603;51.148;16.932;2023-03-08T00:33:53;19.23;;;10.05;;
45893;SDS011;31603;51.148;16.932;2023-03-08T00:36:20;20.98;;;10.30;;
45893;SDS011;31603;51.148;16.932;2023-03-08T00:38:50;22.33;;;10.45;;
45893;SDS011;31603;51.148;16.932;2023-03-08T00:41:16;21.55;;;9.50;;
45893;SDS011;31603;51.148;16.932;2023-03-08T00:43:43;22.85;;;10.65;;
45893;SDS011;31603;51.148;16.932;2023-03-08T00:46:10;17.60;;;9.07;;
45893;SDS011;31603;51.148;16.932;2023-03-08T00:48:37;18.55;;;8.63;;
45893;SDS011;31603;51.148;16.932;2023-03-08T00:51:05;32.63;;;15.52;;
45893;SDS011;31603;51.148;16.932;2023-03-08T00:53:31;32.13;;;14.43;;
45893;SDS011;31603;51.148;16.932;2023-03-08T00:55:58;18.17;;;9.23;;
45893;SDS011;31603;51.148;16.932;2023-03-08T00:58:26;17.13;;;9.05;;
45893;SDS011;31603;51.148;16.932;2023-03-08T01:00:54;17.17;;;9.23;;
45893;SDS011;31603;51.148;16.932;2023-03-08T01:03:21;16.50;;;8.60;;
45893;SDS011;31603;51.148;16.932;2023-03-08T01:05:48;16.52;;;8.13;;
45893;SDS011;31603;51.148;16.932;2023-03-08T01:08:17;16.73;;;8.15;;
45893;SDS011;31603;51.148;16.932;2023-03-08T01:10:47;14.65;;;7.93;;
45893;SDS011;31603;51.148;16.932;2023-03-08T01:13:18;14.88;;;7.38;;
45893;SDS011;31603;51.148;16.932;2023-03-08T01:15:45;11.60;;;6.57;;
45893;SDS011;31603;51.148;16.932;2023-03-08T01:18:12;10.77;;;5.75;;
45893;SDS011;31603;51.148;16.932;2023-03-08T01:20:39;11.95;;;6.03;;
45893;SDS011;31603;51.148;16.932;2023-03-08T01:23:05;14.25;;;6.40;;
45893;SDS011;31603;51.148;16.932;2023-03-08T01:25:34;11.35;;;6.05;;
45893;SDS011;31603;51.148;16.932;2023-03-08T01:28:01;11.40;;;6.00;;
45893;SDS011;31603;51.148;16.932;2023-03-08T01:30:28;12.38;;;5.97;;
45893;SDS011;31603;51.148;16.932;2023-03-08T01:32:54;12.57;;;7.32;;
45893;SDS011;31603;51.148;16.932;2023-03-08T01:35:22;10.35;;;5.10;;
45893;SDS011;31603;51.148;16.932;2023-03-08T01:37:50;11.20;;;5.75;;
45893;SDS011;31603;51.148;16.932;2023-03-08T01:40:18;11.20;;;6.25;;
45893;SDS011;31603;51.148;16.932;2023-03-08T01:42:48;12.52;;;6.47;;
45893;SDS011;31603;51.148;16.932;2023-03-08T01:48:29;11.45;;;5.88;;
45893;SDS011;31603;51.148;16.932;2023-03-08T01:50:59;14.57;;;6.95;;
45893;SDS011;31603;51.148;16.932;2023-03-08T01:53:28;12.07;;;6.22;;
45893;SDS011;31603;51.148;16.932;2023-03-08T01:55:55;13.18;;;6.85;;
45893;SDS011;31603;51.148;16.932;2023-03-08T01:58:23;11.43;;;5.90;;
45893;SDS011;31603;51.148;16.932;2023-03-08T02:00:50;11.30;;;5.72;;
45893;SDS011;31603;51.148;16.932;2023-03-08T02:03:20;8.82;;;4.70;;
45893;SDS011;31603;51.148;16.932;2023-03-08T02:05:46;15.23;;;5.80;;
45893;SDS011;31603;51.148;16.932;2023-03-08T02:08:15;7.72;;;4.68;;
45893;SDS011;31603;51.148;16.932;2023-03-08T02:10:41;7.50;;;4.75;;
45893;SDS011;31603;51.148;16.932;2023-03-08T02:13:09;7.18;;;4.05;;
45893;SDS011;31603;51.148;16.932;2023-03-08T02:15:38;8.23;;;3.88;;
45893;SDS011;31603;51.148;16.932;2023-03-08T02:18:04;9.57;;;3.95;;
45893;SDS011;31603;51.148;16.932;2023-03-08T02:20:31;6.18;;;3.40;;
45893;SDS011;31603;51.148;16.932;2023-03-08T02:25:33;6.63;;;3.10;;
45893;SDS011;31603;51.148;16.932;2023-03-08T02:28:00;9.50;;;3.47;;
45893;SDS011;31603;51.148;16.932;2023-03-08T02:30:29;7.50;;;3.05;;
45893;SDS011;31603;51.148;16.932;2023-03-08T02:32:57;7.57;;;3.63;;
45893;SDS011;31603;51.148;16.932;2023-03-08T02:35:24;7.85;;;3.30;;
45893;SDS011;31603;51.148;16.932;2023-03-08T02:37:50;6.18;;;3.13;;
45893;SDS011;31603;51.148;16.932;2023-03-08T02:40:18;7.85;;;2.97;;
45893;SDS011;31603;51.148;16.932;2023-03-08T02:42:45;5.50;;;3.13;;
45893;SDS011;31603;51.148;16.932;2023-03-08T02:45:12;5.60;;;3.10;;
45893;SDS011;31603;51.148;16.932;2023-03-08T02:47:38;7.60;;;3.22;;
45893;SDS011;31603;51.148;16.932;2023-03-08T02:50:06;6.97;;;3.10;;
45893;SDS011;31603;51.148;16.932;2023-03-08T02:52:34;7.60;;;2.75;;
45893;SDS011;31603;51.148;16.932;2023-03-08T02:55:00;8.93;;;3.05;;
45893;SDS011;31603;51.148;16.932;2023-03-08T02:57:28;5.18;;;2.95;;
45893;SDS011;31603;51.148;16.932;2023-03-08T02:59:55;6.03;;;3.47;;
45893;SDS011;31603;51.148;16.932;2023-03-08T03:02:21;8.07;;;3.72;;
45893;SDS011;31603;51.148;16.932;2023-03-08T03:04:48;5.88;;;3.28;;
45893;SDS011;31603;51.148;16.932;2023-03-08T03:07:14;7.57;;;3.55;;
45893;SDS011;31603;51.148;16.932;2023-03-08T03:09:41;6.28;;;3.15;;
45893;SDS011;31603;51.148;16.932;2023-03-08T03:12:07;9.95;;;3.30;;
45893;SDS011;31603;51.148;16.932;2023-03-08T03:14:35;9.48;;;3.53;;
45893;SDS011;31603;51.148;16.932;2023-03-08T03:17:05;12.43;;;3.80;;
45893;SDS011;31603;51.148;16.932;2023-03-08T03:19:33;6.47;;;3.58;;
45893;SDS011;31603;51.148;16.932;2023-03-08T03:21:59;9.70;;;3.28;;
45893;SDS011;31603;51.148;16.932;2023-03-08T03:24:26;7.45;;;3.35;;
45893;SDS011;31603;51.148;16.932;2023-03-08T03:26:53;9.40;;;4.03;;
45893;SDS011;31603;51.148;16.932;2023-03-08T03:29:20;8.70;;;4.53;;
45893;SDS011;31603;51.148;16.932;2023-03-08T03:31:48;10.77;;;3.88;;
45893;SDS011;31603;51.148;16.932;2023-03-08T03:34:16;9.07;;;3.60;;
45893;SDS011;31603;51.148;16.932;2023-03-08T03:36:43;8.60;;;3.90;;
45893;SDS011;31603;51.148;16.932;2023-03-08T03:39:09;8.38;;;4.10;;
45893;SDS011;31603;51.148;16.932;2023-03-08T03:41:36;10.13;;;4.32;;
45893;SDS011;31603;51.148;16.932;2023-03-08T03:44:02;10.43;;;4.72;;
45893;SDS011;31603;51.148;16.932;2023-03-08T03:46:29;11.18;;;3.63;;
45893;SDS011;31603;51.148;16.932;2023-03-08T03:48:57;10.07;;;4.47;;
45893;SDS011;31603;51.148;16.932;2023-03-08T03:51:24;12.75;;;3.88;;
45893;SDS011;31603;51.148;16.932;2023-03-08T03:53:50;11.65;;;4.75;;
45893;SDS011;31603;51.148;16.932;2023-03-08T03:56:17;8.73;;;3.92;;
45893;SDS011;31603;51.148;16.932;2023-03-08T03:58:45;9.90;;;3.50;;
45893;SDS011;31603;51.148;16.932;2023-03-08T04:01:13;7.35;;;3.90;;
45893;SDS011;31603;51.148;16.932;2023-03-08T04:03:40;10.15;;;3.95;;
45893;SDS011;31603;51.148;16.932;2023-03-08T04:06:10;8.20;;;3.55;;
45893;SDS011;31603;51.148;16.932;2023-03-08T04:08:39;5.97;;;3.10;;
45893;SDS011;31603;51.148;16.932;2023-03-08T04:11:07;10.00;;;4.13;;
45893;SDS011;31603;51.148;16.932;2023-03-08T04:13:35;9.20;;;3.70;;
45893;SDS011;31603;51.148;16.932;2023-03-08T04:16:07;8.25;;;3.80;;
45893;SDS011;31603;51.148;16.932;2023-03-08T04:18:34;7.50;;;2.97;;
45893;SDS011;31603;51.148;16.932;2023-03-08T04:21:01;9.13;;;3.95;;
45893;SDS011;31603;51.148;16.932;2023-03-08T04:23:33;7.90;;;4.13;;
45893;SDS011;31603;51.148;16.932;2023-03-08T04:26:00;10.45;;;4.43;;
45893;SDS011;31603;51.148;16.932;2023-03-08T04:28:27;10.38;;;4.68;;
45893;SDS011;31603;51.148;16.932;2023-03-08T04:30:54;15.63;;;5.90;;
45893;SDS011;31603;51.148;16.932;2023-03-08T04:33:21;14.52;;;6.18;;
45893;SDS011;31603;51.148;16.932;2023-03-08T04:35:48;12.02;;;5.57;;
45893;SDS011;31603;51.148;16.932;2023-03-08T04:38:15;11.70;;;6.55;;
45893;SDS011;31603;51.148;16.932;2023-03-08T04:40:47;15.27;;;6.65;;
45893;SDS011;31603;51.148;16.932;2023-03-08T04:43:29;20.40;;;8.15;;
45893;SDS011;31603;51.148;16.932;2023-03-08T04:45:56;21.23;;;9.93;;
45893;SDS011;31603;51.148;16.932;2023-03-08T04:48:23;17.70;;;8.20;;
45893;SDS011;31603;51.148;16.932;2023-03-08T04:50:50;17.65;;;9.63;;
45893;SDS011;31603;51.148;16.932;2023-03-08T04:53:17;17.02;;;8.18;;
45893;SDS011;31603;51.148;16.932;2023-03-08T04:55:44;15.35;;;7.75;;
45893;SDS011;31603;51.148;16.932;2023-03-08T04:58:12;17.25;;;7.65;;
45893;SDS011;31603;51.148;16.932;2023-03-08T05:00:38;20.73;;;7.30;;
45893;SDS011;31603;51.148;16.932;2023-03-08T05:03:06;14.68;;;7.05;;
45893;SDS011;31603;51.148;16.932;2023-03-08T05:05:32;14.13;;;7.43;;
45893;SDS011;31603;51.148;16.932;2023-03-08T05:07:59;13.18;;;7.13;;
45893;SDS011;31603;51.148;16.932;2023-03-08T05:10:28;18.90;;;8.85;;
45893;SDS011;31603;51.148;16.932;2023-03-08T05:12:55;19.80;;;8.68;;
45893;SDS011;31603;51.148;16.932;2023-03-08T05:15:23;22.20;;;8.45;;
45893;SDS011;31603;51.148;16.932;2023-03-08T05:17:50;23.23;;;9.43;;
45893;SDS011;31603;51.148;16.932;2023-03-08T05:20:17;18.02;;;7.90;;
45893;SDS011;31603;51.148;16.932;2023-03-08T05:22:43;22.98;;;9.55;;
45893;SDS011;31603;51.148;16.932;2023-03-08T05:25:11;20.83;;;10.02;;
45893;SDS011;31603;51.148;16.932;2023-03-08T05:27:40;22.75;;;10.68;;
45893;SDS011;31603;51.148;16.932;2023-03-08T05:30:06;21.95;;;9.80;;
45893;SDS011;31603;51.148;16.932;2023-03-08T05:32:35;23.92;;;10.43;;
45893;SDS011;31603;51.148;16.932;2023-03-08T05:35:02;25.40;;;10.27;;
45893;SDS011;31603;51.148;16.932;2023-03-08T05:37:29;23.58;;;10.88;;
45893;SDS011;31603;51.148;16.932;2023-03-08T05:39:56;21.60;;;9.70;;
45893;SDS011;31603;51.148;16.932;2023-03-08T05:42:22;19.35;;;9.30;;
45893;SDS011;31603;51.148;16.932;2023-03-08T05:44:48;17.55;;;8.75;;
45893;SDS011;31603;51.148;16.932;2023-03-08T05:47:15;20.85;;;9.50;;
45893;SDS011;31603;51.148;16.932;2023-03-08T05:49:47;20.27;;;9.57;;
45893;SDS011;31603;51.148;16.932;2023-03-08T05:52:14;25.20;;;10.25;;
45893;SDS011;31603;51.148;16.932;2023-03-08T05:54:42;30.17;;;12.35;;
45893;SDS011;31603;51.148;16.932;2023-03-08T05:57:09;26.15;;;11.13;;
45893;SDS011;31603;51.148;16.932;2023-03-08T05:59:35;27.42;;;11.45;;
45893;SDS011;31603;51.148;16.932;2023-03-08T06:02:02;27.35;;;10.18;;
45893;SDS011;31603;51.148;16.932;2023-03-08T06:04:29;23.15;;;10.18;;
45893;SDS011;31603;51.148;16.932;2023-03-08T06:06:58;20.98;;;8.82;;
45893;SDS011;31603;51.148;16.932;2023-03-08T06:09:24;21.13;;;9.75;;
45893;SDS011;31603;51.148;16.932;2023-03-08T06:11:50;19.33;;;9.35;;
45893;SDS011;31603;51.148;16.932;2023-03-08T06:14:17;21.58;;;9.10;;
45893;SDS011;31603;51.148;16.932;2023-03-08T06:16:44;17.08;;;8.35;;
45893;SDS011;31603;51.148;16.932;2023-03-08T06:19:12;15.23;;;7.80;;
45893;SDS011;31603;51.148;16.932;2023-03-08T06:21:39;22.15;;;9.80;;
45893;SDS011;31603;51.148;16.932;2023-03-08T06:24:07;21.67;;;9.50;;
45893;SDS011;31603;51.148;16.932;2023-03-08T06:26:33;18.30;;;8.77;;
45893;SDS011;31603;51.148;16.932;2023-03-08T06:29:00;16.27;;;7.93;;
45893;SDS011;31603;51.148;16.932;2023-03-08T06:31:26;15.20;;;7.28;;
45893;SDS011;31603;51.148;16.932;2023-03-08T06:33:53;12.98;;;6.75;;
45893;SDS011;31603;51.148;16.932;2023-03-08T06:36:20;15.77;;;7.43;;
45893;SDS011;31603;51.148;16.932;2023-03-08T06:38:47;16.15;;;7.60;;
45893;SDS011;31603;51.148;16.932;2023-03-08T06:41:16;12.32;;;6.78;;
45893;SDS011;31603;51.148;16.932;2023-03-08T06:43:43;14.48;;;6.57;;
45893;SDS011;31603;51.148;16.932;2023-03-08T06:46:11;12.75;;;6.25;;
45893;SDS011;31603;51.148;16.932;2023-03-08T06:48:38;13.32;;;7.55;;
45893;SDS011;31603;51.148;16.932;2023-03-08T06:51:05;15.68;;;8.13;;
45893;SDS011;31603;51.148;16.932;2023-03-08T06:53:32;16.52;;;6.75;;
45893;SDS011;31603;51.148;16.932;2023-03-08T06:56:02;15.45;;;6.82;;
45893;SDS011;31603;51.148;16.932;2023-03-08T06:58:32;17.00;;;8.32;;
45893;SDS011;31603;51.148;16.932;2023-03-08T07:00:59;13.95;;;6.93;;
45893;SDS011;31603;51.148;16.932;2023-03-08T07:03:28;16.13;;;7.05;;
45893;SDS011;31603;51.148;16.932;2023-03-08T07:05:57;14.73;;;6.55;;
45893;SDS011;31603;51.148;16.932;2023-03-08T07:08:24;9.77;;;5.15;;
45893;SDS011;31603;51.148;16.932;2023-03-08T07:10:51;14.05;;;6.78;;
45893;SDS011;31603;51.148;16.932;2023-03-08T07:13:17;13.00;;;5.97;;
45893;SDS011;31603;51.148;16.932;2023-03-08T07:15:47;11.95;;;6.20;;
45893;SDS011;31603;51.148;16.932;2023-03-08T07:18:13;17.02;;;7.50;;
45893;SDS011;31603;51.148;16.932;2023-03-08T07:20:40;14.20;;;7.13;;
45893;SDS011;31603;51.148;16.932;2023-03-08T07:23:06;18.30;;;6.95;;
45893;SDS011;31603;51.148;16.932;2023-03-08T07:25:33;17.08;;;6.47;;
45893;SDS011;31603;51.148;16.932;2023-03-08T07:28:01;10.68;;;5.70;;
45893;SDS011;31603;51.148;16.932;2023-03-08T07:30:30;10.38;;;5.85;;
45893;SDS011;31603;51.148;16.932;2023-03-08T07:32:58;15.07;;;6.57;;
45893;SDS011;31603;51.148;16.932;2023-03-08T07:35:24;13.50;;;6.55;;
45893;SDS011;31603;51.148;16.932;2023-03-08T07:37:50;12.65;;;6.93;;
45893;SDS011;31603;51.148;16.932;2023-03-08T07:40:17;18.25;;;8.32;;
45893;SDS011;31603;51.148;16.932;2023-03-08T07:42:45;16.85;;;7.90;;
45893;SDS011;31603;51.148;16.932;2023-03-08T07:45:12;12.55;;;7.30;;
45893;SDS011;31603;51.148;16.932;2023-03-08T07:47:39;16.73;;;7.93;;
45893;SDS011;31603;51.148;16.932;2023-03-08T07:50:08;13.80;;;6.47;;
45893;SDS011;31603;51.148;16.932;2023-03-08T07:52:35;14.52;;;7.20;;
45893;SDS011;31603;51.148;16.932;2023-03-08T07:55:03;14.27;;;7.28;;
45893;SDS011;31603;51.148;16.932;2023-03-08T07:57:30;10.90;;;6.43;;
45893;SDS011;31603;51.148;16.932;2023-03-08T07:59:57;12.23;;;7.10;;
45893;SDS011;31603;51.148;16.932;2023-03-08T08:02:23;10.82;;;6.60;;
45893;SDS011;31603;51.148;16.932;2023-03-08T08:04:49;15.18;;;6.72;;
45893;SDS011;31603;51.148;16.932;2023-03-08T08:07:19;7.60;;;4.43;;
45893;SDS011;31603;51.148;16.932;2023-03-08T08:09:45;8.75;;;4.95;;
45893;SDS011;31603;51.148;16.932;2023-03-08T08:12:12;9.98;;;5.47;;
45893;SDS011;31603;51.148;16.932;2023-03-08T08:14:39;8.68;;;4.88;;
45893;SDS011;31603;51.148;16.932;2023-03-08T08:17:05;9.50;;;5.05;;
45893;SDS011;31603;51.148;16.932;2023-03-08T08:19:32;10.93;;;5.03;;
45893;SDS011;31603;51.148;16.932;2023-03-08T08:21:59;10.32;;;5.10;;
45893;SDS011;31603;51.148;16.932;2023-03-08T08:24:27;10.82;;;5.00;;
45893;SDS011;31603;51.148;16.932;2023-03-08T08:26:54;11.25;;;5.18;;
45893;SDS011;31603;51.148;16.932;2023-03-08T08:29:21;10.60;;;5.30;;
45893;SDS011;31603;51.148;16.932;2023-03-08T08:31:48;11.63;;;4.88;;
45893;SDS011;31603;51.148;16.932;2023-03-08T08:34:16;10.65;;;5.85;;
45893;SDS011;31603;51.148;16.932;2023-03-08T08:36:43;10.40;;;5.70;;
45893;SDS011;31603;51.148;16.932;2023-03-08T08:39:09;11.68;;;5.72;;
45893;SDS011;31603;51.148;16.932;2023-03-08T08:41:37;10.55;;;5.35;;
45893;SDS011;31603;51.148;16.932;2023-03-08T08:44:04;12.95;;;5.35;;
45893;SDS011;31603;51.148;16.932;2023-03-08T08:46:31;10.82;;;5.57;;
45893;SDS011;31603;51.148;16.932;2023-03-08T08:48:59;11.23;;;5.25;;
45893;SDS011;31603;51.148;16.932;2023-03-08T08:51:26;12.60;;;6.35;;
45893;SDS011;31603;51.148;16.932;2023-03-08T08:53:53;14.70;;;6.20;;
45893;SDS011;31603;51.148;16.932;2023-03-08T08:56:21;17.77;;;9.00;;
45893;SDS011;31603;51.148;16.932;2023-03-08T08:58:50;10.23;;;5.85;;
45893;SDS011;31603;51.148;16.932;2023-03-08T09:01:18;9.43;;;5.68;;
45893;SDS011;31603;51.148;16.932;2023-03-08T09:03:46;11.82;;;6.03;;
45893;SDS011;31603;51.148;16.932;2023-03-08T09:06:14;12.75;;;6.13;;
45893;SDS011;31603;51.148;16.932;2023-03-08T09:08:47;15.70;;;6.38;;
45893;SDS011;31603;51.148;16.932;2023-03-08T09:11:14;11.10;;;5.97;;
45893;SDS011;31603;51.148;16.932;2023-03-08T09:13:40;9.20;;;5.40;;
45893;SDS011;31603;51.148;16.932;2023-03-08T09:16:15;11.48;;;5.65;;
45893;SDS011;31603;51.148;16.932;2023-03-08T09:18:43;12.32;;;6.18;;
45893;SDS011;31603;51.148;16.932;2023-03-08T09:21:10;10.23;;;5.80;;
45893;SDS011;31603;51.148;16.932;2023-03-08T09:23:36;12.93;;;6.15;;
45893;SDS011;31603;51.148;16.932;2023-03-08T09:26:03;10.10;;;5.20;;
45893;SDS011;31603;51.148;16.932;2023-03-08T09:28:31;8.52;;;5.70;;
45893;SDS011;31603;51.148;16.932;2023-03-08T09:30:58;12.10;;;5.28;;
45893;SDS011;31603;51.148;16.932;2023-03-08T09:33:28;16.95;;;5.88;;
45893;SDS011;31603;51.148;16.932;2023-03-08T09:35:55;11.00;;;5.13;;
45893;SDS011;31603;51.148;16.932;2023-03-08T09:38:22;12.48;;;5.47;;
45893;SDS011;31603;51.148;16.932;2023-03-08T09:40:52;12.23;;;5.60;;
45893;SDS011;31603;51.148;16.932;2023-03-08T09:43:33;10.02;;;5.13;;
45893;SDS011;31603;51.148;16.932;2023-03-08T09:46:10;11.77;;;5.72;;
45893;SDS011;31603;51.148;16.932;2023-03-08T09:48:40;8.63;;;4.85;;
45893;SDS011;31603;51.148;16.932;2023-03-08T09:51:09;16.52;;;5.55;;
45893;SDS011;31603;51.148;16.932;2023-03-08T09:53:38;12.63;;;5.35;;
45893;SDS011;31603;51.148;16.932;2023-03-08T09:56:10;8.30;;;5.18;;
45893;SDS011;31603;51.148;16.932;2023-03-08T09:58:45;9.48;;;4.72;;
45893;SDS011;31603;51.148;16.932;2023-03-08T10:01:19;10.55;;;4.55;;
45893;SDS011;31603;51.148;16.932;2023-03-08T10:03:55;9.23;;;4.15;;
45893;SDS011;31603;51.148;16.932;2023-03-08T10:06:40;7.90;;;4.07;;
45893;SDS011;31603;51.148;16.932;2023-03-08T10:09:17;9.95;;;4.90;;
45893;SDS011;31603;51.148;16.932;2023-03-08T10:11:52;8.02;;;4.35;;
45893;SDS011;31603;51.148;16.932;2023-03-08T10:14:25;8.73;;;4.47;;
45893;SDS011;31603;51.148;16.932;2023-03-08T10:19:27;7.63;;;3.90;;
45893;SDS011;31603;51.148;16.932;2023-03-08T10:21:56;8.77;;;4.38;;
45893;SDS011;31603;51.148;16.932;2023-03-08T10:24:30;8.90;;;4.72;;
45893;SDS011;31603;51.148;16.932;2023-03-08T10:27:05;7.30;;;4.10;;
45893;SDS011;31603;51.148;16.932;2023-03-08T10:29:47;7.45;;;4.70;;
45893;SDS011;31603;51.148;16.932;2023-03-08T10:32:17;9.60;;;5.65;;
45893;SDS011;31603;51.148;16.932;2023-03-08T10:34:46;9.48;;;4.93;;
45893;SDS011;31603;51.148;16.932;2023-03-08T10:37:13;9.00;;;5.30;;
45893;SDS011;31603;51.148;16.932;2023-03-08T10:39:46;12.90;;;6.07;;
45893;SDS011;31603;51.148;16.932;2023-03-08T10:42:17;9.57;;;5.72;;
45893;SDS011;31603;51.148;16.932;2023-03-08T10:44:51;10.75;;;6.18;;
45893;SDS011;31603;51.148;16.932;2023-03-08T10:47:21;13.90;;;7.43;;
45893;SDS011;31603;51.148;16.932;2023-03-08T10:50:01;9.27;;;6.70;;
45893;SDS011;31603;51.148;16.932;2023-03-08T10:52:34;10.48;;;6.70;;
45893;SDS011;31603;51.148;16.932;2023-03-08T10:55:01;10.68;;;6.97;;
45893;SDS011;31603;51.148;16.932;2023-03-08T10:57:29;9.93;;;6.32;;
45893;SDS011;31603;51.148;16.932;2023-03-08T10:59:57;11.95;;;6.13;;
45893;SDS011;31603;51.148;16.932;2023-03-08T11:02:32;14.43;;;5.93;;
45893;SDS011;31603;51.148;16.932;2023-03-08T11:05:00;11.43;;;6.28;;
45893;SDS011;31603;51.148;16.932;2023-03-08T11:07:27;15.07;;;7.07;;
45893;SDS011;31603;51.148;16.932;2023-03-08T11:12:41;11.45;;;6.55;;
45893;SDS011;31603;51.148;16.932;2023-03-08T11:15:11;10.27;;;6.65;;
45893;SDS011;31603;51.148;16.932;2023-03-08T11:17:38;12.30;;;5.78;;
45893;SDS011;31603;51.148;16.932;2023-03-08T11:20:14;12.85;;;6.40;;
45893;SDS011;31603;51.148;16.932;2023-03-08T11:22:48;9.82;;;6.50;;
45893;SDS011;31603;51.148;16.932;2023-03-08T11:25:32;17.40;;;7.97;;
45893;SDS011;31603;51.148;16.932;2023-03-08T11:30:59;14.43;;;7.40;;
45893;SDS011;31603;51.148;16.932;2023-03-08T11:33:44;13.38;;;7.53;;
45893;SDS011;31603;51.148;16.932;2023-03-08T11:36:23;14.48;;;8.40;;
45893;SDS011;31603;51.148;16.932;2023-03-08T11:38:56;14.57;;;8.27;;
45893;SDS011;31603;51.148;16.932;2023-03-08T11:41:27;16.10;;;8.10;;
45893;SDS011;31603;51.148;16.932;2023-03-08T11:44:16;13.45;;;7.82;;
45893;SDS011;31603;51.148;16.932;2023-03-08T11:46:58;11.20;;;7.60;;
45893;SDS011;31603;51.148;16.932;2023-03-08T11:49:42;14.25;;;7.22;;
45893;SDS011;31603;51.148;16.932;2023-03-08T11:52:20;23.73;;;11.90;;
45893;SDS011;31603;51.148;16.932;2023-03-08T11:54:59;13.55;;;7.68;;
45893;SDS011;31603;51.148;16.932;2023-03-08T11:57:45;11.48;;;7.20;;
45893;SDS011;31603;51.148;16.932;2023-03-08T12:00:22;12.50;;;6.28;;
45893;SDS011;31603;51.148;16.932;2023-03-08T12:02:56;13.63;;;7.75;;
45893;SDS011;31603;51.148;16.932;2023-03-08T12:05:28;11.20;;;7.10;;
45893;SDS011;31603;51.148;16.932;2023-03-08T12:08:01;14.52;;;7.72;;
45893;SDS011;31603;51.148;16.932;2023-03-08T12:10:33;11.57;;;6.80;;
45893;SDS011;31603;51.148;16.932;2023-03-08T12:13:11;10.80;;;6.35;;
45893;SDS011;31603;51.148;16.932;2023-03-08T12:15:44;12.85;;;6.93;;
45893;SDS011;31603;51.148;16.932;2023-03-08T12:18:15;12.75;;;6.80;;
45893;SDS011;31603;51.148;16.932;2023-03-08T12:20:47;10.90;;;6.82;;
45893;SDS011;31603;51.148;16.932;2023-03-08T12:23:19;9.93;;;6.30;;
45893;SDS011;31603;51.148;16.932;2023-03-08T12:26:01;10.73;;;6.72;;
45893;SDS011;31603;51.148;16.932;2023-03-08T12:28:33;12.02;;;7.07;;
45893;SDS011;31603;51.148;16.932;2023-03-08T12:31:06;11.48;;;6.18;;
45893;SDS011;31603;51.148;16.932;2023-03-08T12:36:12;10.45;;;5.43;;
45893;SDS011;31603;51.148;16.932;2023-03-08T12:38:41;12.93;;;6.53;;
45893;SDS011;31603;51.148;16.932;2023-03-08T12:41:20;14.38;;;7.28;;
45893;SDS011;31603;51.148;16.932;2023-03-08T12:43:57;11.90;;;6.65;;
45893;SDS011;31603;51.148;16.932;2023-03-08T12:46:25;11.52;;;6.53;;
45893;SDS011;31603;51.148;16.932;2023-03-08T12:48:51;10.65;;;5.78;;
45893;SDS011;31603;51.148;16.932;2023-03-08T12:51:19;10.55;;;5.97;;
45893;SDS011;31603;51.148;16.932;2023-03-08T12:53:58;12.20;;;7.07;;
45893;SDS011;31603;51.148;16.932;2023-03-08T12:56:28;11.88;;;5.45;;
45893;SDS011;31603;51.148;16.932;2023-03-08T12:58:58;13.60;;;6.63;;
45893;SDS011;31603;51.148;16.932;2023-03-08T13:01:31;12.82;;;6.82;;
45893;SDS011;31603;51.148;16.932;2023-03-08T13:03:59;11.27;;;6.00;;
45893;SDS011;31603;51.148;16.932;2023-03-08T13:09:25;12.43;;;6.70;;
45893;SDS011;31603;51.148;16.932;2023-03-08T13:11:55;14.55;;;7.32;;
45893;SDS011;31603;51.148;16.932;2023-03-08T13:14:26;10.75;;;6.38;;
45893;SDS011;31603;51.148;16.932;2023-03-08T13:17:03;13.30;;;7.18;;
45893;SDS011;31603;51.148;16.932;2023-03-08T13:19:58;17.70;;;8.85;;
45893;SDS011;31603;51.148;16.932;2023-03-08T13:22:33;12.45;;;7.68;;
45893;SDS011;31603;51.148;16.932;2023-03-08T13:25:10;14.52;;;7.38;;
45893;SDS011;31603;51.148;16.932;2023-03-08T13:27:48;14.35;;;7.47;;
45893;SDS011;31603;51.148;16.932;2023-03-08T13:30:22;19.20;;;10.32;;
45893;SDS011;31603;51.148;16.932;2023-03-08T13:32:50;14.95;;;8.90;;
45893;SDS011;31603;51.148;16.932;2023-03-08T13:35:17;17.10;;;8.40;;
45893;SDS011;31603;51.148;16.932;2023-03-08T13:37:50;16.52;;;8.55;;
45893;SDS011;31603;51.148;16.932;2023-03-08T13:40:27;13.38;;;7.40;;
45893;SDS011;31603;51.148;16.932;2023-03-08T13:42:55;14.95;;;8.63;;
45893;SDS011;31603;51.148;16.932;2023-03-08T13:45:23;14.95;;;8.15;;
45893;SDS011;31603;51.148;16.932;2023-03-08T13:47:50;16.38;;;8.85;;
45893;SDS011;31603;51.148;16.932;2023-03-08T13:50:19;14.82;;;8.38;;
45893;SDS011;31603;51.148;16.932;2023-03-08T13:52:51;15.00;;;8.27;;
45893;SDS011;31603;51.148;16.932;2023-03-08T13:55:20;14.57;;;8.77;;
45893;SDS011;31603;51.148;16.932;2023-03-08T13:57:51;15.15;;;7.80;;
45893;SDS011;31603;51.148;16.932;2023-03-08T14:00:21;14.32;;;8.45;;
45893;SDS011;31603;51.148;16.932;2023-03-08T14:02:50;14.88;;;7.68;;
45893;SDS011;31603;51.148;16.932;2023-03-08T14:05:18;13.82;;;8.27;;
45893;SDS011;31603;51.148;16.932;2023-03-08T14:07:54;15.65;;;8.77;;
45893;SDS011;31603;51.148;16.932;2023-03-08T14:10:28;12.98;;;7.90;;
45893;SDS011;31603;51.148;16.932;2023-03-08T14:12:59;15.75;;;8.52;;
45893;SDS011;31603;51.148;16.932;2023-03-08T14:15:26;21.38;;;10.95;;
45893;SDS011;31603;51.148;16.932;2023-03-08T14:17:53;16.45;;;10.32;;
45893;SDS011;31603;51.148;16.932;2023-03-08T14:20:22;16.83;;;10.00;;
45893;SDS011;31603;51.148;16.932;2023-03-08T14:22:50;20.63;;;10.23;;
45893;SDS011;31603;51.148;16.932;2023-03-08T14:25:23;16.20;;;10.18;;
45893;SDS011;31603;51.148;16.932;2023-03-08T14:27:53;18.90;;;10.07;;
45893;SDS011;31603;51.148;16.932;2023-03-08T14:30:20;19.05;;;10.13;;
45893;SDS011;31603;51.148;16.932;2023-03-08T14:32:55;17.42;;;9.85;;
45893;SDS011;31603;51.148;16.932;2023-03-08T14:35:24;21.90;;;11.60;;
45893;SDS011;31603;51.148;16.932;2023-03-08T14:37:53;19.20;;;11.68;;
45893;SDS011;31603;51.148;16.932;2023-03-08T14:40:22;17.95;;;11.15;;
45893;SDS011;31603;51.148;16.932;2023-03-08T14:42:54;20.15;;;12.50;;
45893;SDS011;31603;51.148;16.932;2023-03-08T14:45:22;20.83;;;12.75;;
45893;SDS011;31603;51.148;16.932;2023-03-08T14:47:51;27.75;;;14.95;;
45893;SDS011;31603;51.148;16.932;2023-03-08T14:50:21;26.25;;;14.50;;
45893;SDS011;31603;51.148;16.932;2023-03-08T14:52:50;27.08;;;15.35;;
45893;SDS011;31603;51.148;16.932;2023-03-08T14:55:20;22.52;;;13.07;;